Time;durP1;ratioP1;P1;durP2;ratioP2;P2;SDS_P1;SDS_P2;PMS_P1;PMS_P2;Temp;Humidity;BMP_temperature;BMP_pressure;BME280_temperature;BME280_humidity;BME280_pressure;Samples;Min_cycle;Max_cycle;Signal;HPM_P1;HPM_P2
2023/06/06 00:00:09;;;;;;;15.50;13.67;;;;;;;;;;764534;181;919973;-64
2023/06/06 00:02:33;;;;;;;16.27;13.87;;;;;;;;;;770232;181;919349;-63
2023/06/06 00:05:00;;;;;;;16.08;13.35;;;;;;;;;;769197;180;919858;-62
2023/06/06 00:07:26;;;;;;;18.97;13.40;;;;;;;;;;766964;181;918193;-64
2023/06/06 00:09:51;;;;;;;19.60;14.33;;;;;;;;;;772108;182;918767;-63
2023/06/06 00:12:17;;;;;;;15.30;13.37;;;;;;;;;;766196;181;919466;-62
2023/06/06 00:14:43;;;;;;;15.70;13.67;;;;;;;;;;761927;182;919107;-61
2023/06/06 00:17:09;;;;;;;20.10;16.00;;;;;;;;;;757195;184;919565;-62
2023/06/06 00:19:35;;;;;;;15.77;14.07;;;;;;;;;;772892;181;916469;-63
2023/06/06 00:22:01;;;;;;;16.87;14.03;;;;;;;;;;766169;181;919576;-62
2023/06/06 00:24:26;;;;;;;18.47;13.80;;;;;;;;;;764470;181;913410;-64
2023/06/06 00:26:52;;;;;;;21.93;15.37;;;;;;;;;;761546;185;918489;-63
2023/06/06 00:29:18;;;;;;;17.00;14.40;;;;;;;;;;768371;180;917737;-63
2023/06/06 00:31:44;;;;;;;18.37;14.70;;;;;;;;;;756314;184;919272;-66
2023/06/06 00:34:10;;;;;;;21.20;16.73;;;;;;;;;;767893;181;816650;-63
2023/06/06 00:36:35;;;;;;;18.63;16.60;;;;;;;;;;760174;180;918792;-62
2023/06/06 00:39:01;;;;;;;21.00;16.90;;;;;;;;;;764536;181;941830;-62
2023/06/06 00:41:27;;;;;;;16.50;14.73;;;;;;;;;;757398;181;922464;-62
2023/06/06 00:43:53;;;;;;;20.03;15.80;;;;;;;;;;770460;181;915105;-64
2023/06/06 00:46:19;;;;;;;17.60;15.60;;;;;;;;;;763136;180;914099;-63
2023/06/06 00:48:45;;;;;;;17.10;15.30;;;;;;;;;;759444;185;917471;-62
2023/06/06 00:51:11;;;;;;;23.20;14.75;;;;;;;;;;761949;181;918067;-64
2023/06/06 00:53:37;;;;;;;18.67;13.93;;;;;;;;;;771148;180;921424;-63
2023/06/06 00:56:03;;;;;;;19.43;14.83;;;;;;;;;;765352;181;920163;-62
2023/06/06 00:58:28;;;;;;;19.40;15.10;;;;;;;;;;765649;181;919187;-62
2023/06/06 01:00:54;;;;;;;21.60;16.30;;;;;;;;;;762149;182;919674;-62
2023/06/06 01:03:20;;;;;;;19.33;15.13;;;;;;;;;;758290;181;916022;-62
2023/06/06 01:05:47;;;;;;;19.60;15.23;;;;;;;;;;769916;181;916659;-63
2023/06/06 01:08:13;;;;;;;15.47;13.63;;;;;;;;;;765872;182;915137;-63
2023/06/06 01:10:39;;;;;;;18.43;13.60;;;;;;;;;;765300;181;919282;-63
2023/06/06 01:13:11;;;;;;;18.10;14.30;;;;;;;;;;764404;182;920601;-63
2023/06/06 01:15:52;;;;;;;21.03;15.77;;;;;;;;;;770342;181;919661;-62
2023/06/06 01:18:19;;;;;;;19.07;15.13;;;;;;;;;;762876;181;919401;-63
2023/06/06 01:20:43;;;;;;;21.30;15.57;;;;;;;;;;756502;182;921061;-63
2023/06/06 01:23:10;;;;;;;17.40;15.03;;;;;;;;;;763729;181;920029;-64
2023/06/06 01:25:36;;;;;;;18.83;14.37;;;;;;;;;;767903;181;919859;-64
2023/06/06 01:28:04;;;;;;;19.33;15.10;;;;;;;;;;758763;181;920258;-64
2023/06/06 01:30:27;;;;;;;18.23;14.00;;;;;;;;;;762791;181;919147;-64
2023/06/06 01:32:59;;;;;;;19.97;15.40;;;;;;;;;;755579;185;914954;-63
2023/06/06 01:35:28;;;;;;;18.03;14.03;;;;;;;;;;756599;184;920255;-63
2023/06/06 01:38:00;;;;;;;17.10;14.40;;;;;;;;;;750159;184;919329;-64
2023/06/06 01:40:27;;;;;;;18.97;14.40;;;;;;;;;;769245;181;915662;-65
2023/06/06 01:42:52;;;;;;;15.90;14.00;;;;;;;;;;756027;184;915036;-64
2023/06/06 01:45:17;;;;;;;18.43;13.87;;;;;;;;;;772425;181;915605;-64
2023/06/06 01:47:43;;;;;;;17.20;12.83;;;;;;;;;;762868;182;853147;-64
2023/06/06 01:50:09;;;;;;;18.47;13.57;;;;;;;;;;759107;185;816416;-63
2023/06/06 01:52:36;;;;;;;18.08;14.20;;;;;;;;;;760916;184;920199;-65
2023/06/06 01:55:02;;;;;;;18.00;14.30;;;;;;;;;;761740;181;918349;-63
2023/06/06 01:57:28;;;;;;;14.43;12.93;;;;;;;;;;767626;181;819287;-66
2023/06/06 01:59:54;;;;;;;19.20;14.30;;;;;;;;;;765263;181;919196;-65
2023/06/06 02:02:19;;;;;;;13.30;11.90;;;;;;;;;;769327;179;917899;-62
2023/06/06 02:04:45;;;;;;;15.83;13.60;;;;;;;;;;761908;181;917196;-64
2023/06/06 02:07:12;;;;;;;17.87;12.40;;;;;;;;;;766431;181;919337;-64
2023/06/06 02:09:37;;;;;;;14.73;13.17;;;;;;;;;;773317;180;918128;-64
2023/06/06 02:12:03;;;;;;;18.20;13.40;;;;;;;;;;765092;181;918675;-63
2023/06/06 02:14:29;;;;;;;14.07;11.80;;;;;;;;;;768353;181;914355;-64
2023/06/06 02:16:55;;;;;;;16.70;12.23;;;;;;;;;;772818;181;922758;-63
2023/06/06 02:19:21;;;;;;;16.60;11.97;;;;;;;;;;766267;181;919206;-64
2023/06/06 02:21:48;;;;;;;13.57;11.17;;;;;;;;;;765454;182;1021336;-63
2023/06/06 02:24:12;;;;;;;22.13;12.10;;;;;;;;;;759328;183;919525;-64
2023/06/06 02:26:42;;;;;;;15.55;11.57;;;;;;;;;;764075;183;915529;-62
2023/06/06 02:29:06;;;;;;;14.63;11.87;;;;;;;;;;757470;182;920776;-63
2023/06/06 02:31:30;;;;;;;22.10;11.77;;;;;;;;;;767615;181;916012;-62
2023/06/06 02:33:56;;;;;;;16.73;13.00;;;;;;;;;;772608;181;919716;-63
2023/06/06 02:36:22;;;;;;;13.37;11.10;;;;;;;;;;768279;181;852137;-63
2023/06/06 02:38:47;;;;;;;14.27;11.17;;;;;;;;;;754006;185;921012;-63
2023/06/06 02:41:13;;;;;;;15.47;12.70;;;;;;;;;;773807;181;918759;-63
2023/06/06 02:43:42;;;;;;;15.75;12.40;;;;;;;;;;765671;181;927368;-63
2023/06/06 02:46:05;;;;;;;15.63;12.50;;;;;;;;;;758017;178;917668;-74
2023/06/06 02:48:31;;;;;;;15.43;11.33;;;;;;;;;;752056;180;855928;-74
2023/06/06 02:50:57;;;;;;;18.40;12.67;;;;;;;;;;731812;190;919225;-74
2023/06/06 02:53:23;;;;;;;17.03;11.97;;;;;;;;;;734358;191;888551;-74
2023/06/06 02:55:48;;;;;;;15.97;13.10;;;;;;;;;;731582;189;815797;-74
2023/06/06 02:58:21;;;;;;;14.20;12.67;;;;;;;;;;735718;189;812786;-74
2023/06/06 03:00:46;;;;;;;15.50;12.83;;;;;;;;;;728902;190;854872;-74
2023/06/06 03:03:12;;;;;;;14.13;11.07;;;;;;;;;;730134;189;918353;-74
2023/06/06 03:05:38;;;;;;;13.77;11.60;;;;;;;;;;734774;189;918480;-74
2023/06/06 03:08:04;;;;;;;13.00;11.40;;;;;;;;;;751860;179;918789;-74
2023/06/06 03:10:30;;;;;;;15.30;12.33;;;;;;;;;;739474;179;917849;-74
2023/06/06 03:12:55;;;;;;;14.87;12.40;;;;;;;;;;764511;174;918297;-74
2023/06/06 03:15:21;;;;;;;13.83;12.30;;;;;;;;;;762996;171;917370;-74
2023/06/06 03:17:48;;;;;;;19.27;11.70;;;;;;;;;;755182;182;917370;-74
2023/06/06 03:20:13;;;;;;;15.30;12.20;;;;;;;;;;738389;186;917383;-74
2023/06/06 03:22:39;;;;;;;14.00;11.40;;;;;;;;;;752949;186;905901;-74
2023/06/06 03:25:06;;;;;;;13.53;10.90;;;;;;;;;;745485;186;917799;-74
2023/06/06 03:27:31;;;;;;;12.23;11.00;;;;;;;;;;757616;176;869846;-75
2023/06/06 03:29:57;;;;;;;12.90;11.33;;;;;;;;;;782945;179;885646;-74
2023/06/06 03:32:23;;;;;;;15.30;12.13;;;;;;;;;;778821;179;816445;-74
2023/06/06 03:34:49;;;;;;;12.63;11.30;;;;;;;;;;777937;179;919893;-74
2023/06/06 03:37:14;;;;;;;14.27;11.27;;;;;;;;;;778265;179;928198;-74
2023/06/06 03:39:42;;;;;;;13.43;11.43;;;;;;;;;;754551;179;923329;-74
2023/06/06 03:42:07;;;;;;;17.60;10.90;;;;;;;;;;768655;179;918556;-74
2023/06/06 03:44:32;;;;;;;18.40;11.70;;;;;;;;;;774953;177;919396;-74
2023/06/06 03:46:58;;;;;;;16.37;11.27;;;;;;;;;;792680;177;918449;-74
2023/06/06 03:49:24;;;;;;;13.87;12.27;;;;;;;;;;787438;177;975988;-74
2023/06/06 03:51:50;;;;;;;13.20;10.80;;;;;;;;;;787776;177;919158;-74
2023/06/06 03:54:16;;;;;;;13.20;11.30;;;;;;;;;;788367;177;918490;-75
2023/06/06 03:56:42;;;;;;;14.60;12.20;;;;;;;;;;767664;182;918825;-75
2023/06/06 03:59:11;;;;;;;14.80;11.23;;;;;;;;;;751987;187;921449;-75
2023/06/06 04:01:33;;;;;;;14.43;11.60;;;;;;;;;;769012;182;818081;-74
2023/06/06 04:03:59;;;;;;;17.20;11.73;;;;;;;;;;766739;182;920134;-74
2023/06/06 04:06:25;;;;;;;17.63;12.47;;;;;;;;;;782181;177;919031;-74
2023/06/06 04:08:51;;;;;;;17.83;11.38;;;;;;;;;;771315;179;916956;-73
2023/06/06 04:11:17;;;;;;;13.17;11.33;;;;;;;;;;773376;179;838592;-74
2023/06/06 04:13:43;;;;;;;16.23;11.30;;;;;;;;;;786327;177;920292;-74
2023/06/06 04:16:08;;;;;;;18.87;12.20;;;;;;;;;;784744;177;921132;-74
2023/06/06 04:18:34;;;;;;;13.47;10.67;;;;;;;;;;758146;177;919560;-74
2023/06/06 04:21:00;;;;;;;14.60;10.77;;;;;;;;;;764882;181;911239;-75
2023/06/06 04:23:26;;;;;;;17.60;11.93;;;;;;;;;;762782;183;878732;-75
2023/06/06 04:25:52;;;;;;;13.10;10.43;;;;;;;;;;763693;181;917130;-75
2023/06/06 04:28:19;;;;;;;14.87;11.53;;;;;;;;;;759823;182;918310;-75
2023/06/06 04:30:44;;;;;;;14.03;10.93;;;;;;;;;;758564;183;919483;-75
2023/06/06 04:33:09;;;;;;;12.93;10.52;;;;;;;;;;760315;183;919716;-74
2023/06/06 04:35:36;;;;;;;16.03;12.17;;;;;;;;;;760842;183;900156;-75
2023/06/06 04:38:01;;;;;;;13.80;10.83;;;;;;;;;;759365;181;1021922;-75
2023/06/06 04:40:32;;;;;;;18.17;10.77;;;;;;;;;;761007;180;819049;-74
2023/06/06 04:42:58;;;;;;;16.93;10.90;;;;;;;;;;760337;183;900280;-75
2023/06/06 04:45:20;;;;;;;18.00;13.10;;;;;;;;;;756860;182;822675;-75
2023/06/06 04:47:46;;;;;;;14.87;11.30;;;;;;;;;;758627;182;1168008;-75
2023/06/06 04:50:12;;;;;;;20.33;12.10;;;;;;;;;;766926;183;703357;-74
2023/06/06 04:52:37;;;;;;;15.43;12.77;;;;;;;;;;752686;183;917639;-74
2023/06/06 04:55:04;;;;;;;14.50;11.77;;;;;;;;;;748314;186;628425;-74
2023/06/06 04:57:30;;;;;;;15.70;11.07;;;;;;;;;;754463;186;923932;-74
2023/06/06 04:59:56;;;;;;;16.03;11.60;;;;;;;;;;759564;184;1015722;-74
2023/06/06 05:02:21;;;;;;;17.23;13.07;;;;;;;;;;759791;182;892286;-75
2023/06/06 05:04:47;;;;;;;17.45;12.30;;;;;;;;;;758712;184;906757;-74
2023/06/06 05:07:13;;;;;;;14.10;11.30;;;;;;;;;;763590;185;913825;-75
2023/06/06 05:09:39;;;;;;;18.10;12.53;;;;;;;;;;757391;184;922485;-74
2023/06/06 05:12:05;;;;;;;17.00;12.20;;;;;;;;;;756503;181;919700;-75
2023/06/06 05:14:31;;;;;;;13.87;11.70;;;;;;;;;;760527;183;919727;-75
2023/06/06 05:16:57;;;;;;;19.07;12.57;;;;;;;;;;757982;184;918884;-75
2023/06/06 05:19:23;;;;;;;20.25;10.95;;;;;;;;;;757040;184;816352;-74
2023/06/06 05:21:48;;;;;;;11.43;10.23;;;;;;;;;;763444;184;868218;-75
2023/06/06 05:24:14;;;;;;;12.45;10.75;;;;;;;;;;756683;183;919975;-75
2023/06/06 05:26:40;;;;;;;16.70;11.73;;;;;;;;;;762966;180;918973;-62
2023/06/06 05:29:06;;;;;;;14.13;10.27;;;;;;;;;;744944;185;919561;-64
2023/06/06 05:31:33;;;;;;;15.57;11.00;;;;;;;;;;742598;187;932422;-66
2023/06/06 05:33:58;;;;;;;15.90;11.80;;;;;;;;;;745374;186;919038;-65
2023/06/06 05:36:23;;;;;;;15.47;11.07;;;;;;;;;;736022;189;919447;-64
2023/06/06 05:38:49;;;;;;;14.20;10.37;;;;;;;;;;743909;189;816883;-65
2023/06/06 05:41:15;;;;;;;13.17;11.00;;;;;;;;;;738522;187;919152;-64
2023/06/06 05:43:41;;;;;;;13.13;11.40;;;;;;;;;;738075;187;917427;-66
2023/06/06 05:46:07;;;;;;;12.90;11.13;;;;;;;;;;742271;188;917246;-66
2023/06/06 05:48:33;;;;;;;12.47;10.30;;;;;;;;;;757222;183;922637;-64
2023/06/06 05:50:59;;;;;;;13.20;11.40;;;;;;;;;;759379;181;914560;-67
2023/06/06 05:53:26;;;;;;;15.00;10.93;;;;;;;;;;757966;183;817819;-62
2023/06/06 05:55:50;;;;;;;20.83;12.23;;;;;;;;;;762294;183;818267;-63
2023/06/06 05:58:16;;;;;;;12.40;11.10;;;;;;;;;;750544;183;920544;-66
2023/06/06 06:00:42;;;;;;;14.17;10.57;;;;;;;;;;751484;185;877370;-65
2023/06/06 06:03:08;;;;;;;12.50;10.57;;;;;;;;;;742482;186;787524;-66
2023/06/06 06:05:34;;;;;;;16.23;11.83;;;;;;;;;;758755;180;919748;-64
2023/06/06 06:08:00;;;;;;;13.90;12.30;;;;;;;;;;762522;182;817908;-64
2023/06/06 06:10:26;;;;;;;12.63;9.80;;;;;;;;;;743751;186;815379;-63
2023/06/06 06:12:51;;;;;;;13.60;10.07;;;;;;;;;;753883;184;921171;-65
2023/06/06 06:15:17;;;;;;;13.70;11.60;;;;;;;;;;756169;183;915133;-65
2023/06/06 06:17:43;;;;;;;14.20;10.87;;;;;;;;;;758307;183;842431;-66
2023/06/06 06:20:10;;;;;;;14.37;10.60;;;;;;;;;;737482;188;913395;-66
2023/06/06 06:22:35;;;;;;;13.90;9.80;;;;;;;;;;756673;182;920920;-64
2023/06/06 06:25:01;;;;;;;11.07;9.90;;;;;;;;;;750889;183;917000;-64
2023/06/06 06:27:27;;;;;;;14.87;12.23;;;;;;;;;;767568;181;816802;-65
2023/06/06 06:29:53;;;;;;;14.83;11.33;;;;;;;;;;736352;188;918891;-65
2023/06/06 06:32:19;;;;;;;15.97;9.47;;;;;;;;;;745089;186;918896;-66
2023/06/06 06:34:45;;;;;;;11.30;7.90;;;;;;;;;;748875;187;919084;-65
2023/06/06 06:37:10;;;;;;;12.40;9.00;;;;;;;;;;746901;186;919388;-65
2023/06/06 06:39:36;;;;;;;12.57;10.43;;;;;;;;;;743076;186;808945;-66
2023/06/06 06:42:02;;;;;;;11.50;8.77;;;;;;;;;;748318;186;919841;-66
2023/06/06 06:44:28;;;;;;;12.30;9.13;;;;;;;;;;749375;186;817074;-68
2023/06/06 06:46:54;;;;;;;11.63;8.30;;;;;;;;;;749549;186;920111;-66
2023/06/06 06:49:20;;;;;;;12.40;8.97;;;;;;;;;;751389;186;917024;-65
2023/06/06 06:51:47;;;;;;;10.57;8.60;;;;;;;;;;755543;186;919095;-65
2023/06/06 06:54:12;;;;;;;13.37;10.23;;;;;;;;;;741054;186;817568;-65
2023/06/06 06:56:41;;;;;;;9.90;7.80;;;;;;;;;;742211;188;818121;-67
2023/06/06 06:59:05;;;;;;;9.70;7.27;;;;;;;;;;745808;188;915273;-65
2023/06/06 07:01:30;;;;;;;14.20;9.23;;;;;;;;;;745091;186;919754;-67
2023/06/06 07:03:56;;;;;;;18.63;9.53;;;;;;;;;;749456;186;806855;-67
2023/06/06 07:06:22;;;;;;;10.87;8.63;;;;;;;;;;754653;186;917521;-68
2023/06/06 07:08:49;;;;;;;14.50;9.00;;;;;;;;;;756965;183;921896;-64
2023/06/06 07:11:13;;;;;;;10.90;9.23;;;;;;;;;;763545;183;619091;-66
2023/06/06 07:13:39;;;;;;;10.17;7.77;;;;;;;;;;730878;189;835048;-65
2023/06/06 07:16:05;;;;;;;15.33;9.00;;;;;;;;;;740962;188;919349;-65
2023/06/06 07:18:31;;;;;;;11.53;8.03;;;;;;;;;;745443;187;918754;-68
2023/06/06 07:20:57;;;;;;;14.20;9.20;;;;;;;;;;737705;189;719253;-65
2023/06/06 07:23:23;;;;;;;12.10;8.40;;;;;;;;;;741180;190;640260;-67
2023/06/06 07:25:49;;;;;;;10.47;8.70;;;;;;;;;;738678;190;920737;-66
2023/06/06 07:28:15;;;;;;;11.67;8.10;;;;;;;;;;729821;190;907355;-66
2023/06/06 07:30:41;;;;;;;11.43;8.77;;;;;;;;;;734174;189;791889;-66
2023/06/06 07:33:06;;;;;;;11.87;8.20;;;;;;;;;;738158;187;918020;-65
2023/06/06 07:35:32;;;;;;;12.57;8.30;;;;;;;;;;735833;190;911339;-67
2023/06/06 07:37:59;;;;;;;10.17;7.90;;;;;;;;;;732564;190;814296;-66
2023/06/06 07:40:24;;;;;;;11.77;8.30;;;;;;;;;;729181;190;919547;-65
2023/06/06 07:42:50;;;;;;;9.45;7.05;;;;;;;;;;757928;183;919735;-64
2023/06/06 07:45:16;;;;;;;11.50;7.93;;;;;;;;;;756040;183;918103;-68
2023/06/06 07:47:42;;;;;;;10.10;8.10;;;;;;;;;;737706;186;819395;-66
2023/06/06 07:50:08;;;;;;;9.47;7.90;;;;;;;;;;755597;183;923091;-69
2023/06/06 07:52:34;;;;;;;10.90;8.00;;;;;;;;;;756203;184;919532;-68
2023/06/06 07:55:00;;;;;;;15.00;8.43;;;;;;;;;;760659;183;918937;-68
2023/06/06 07:57:26;;;;;;;10.03;7.60;;;;;;;;;;756451;183;812848;-65
2023/06/06 07:59:53;;;;;;;16.30;10.60;;;;;;;;;;761348;183;814902;-69
2023/06/06 08:02:17;;;;;;;11.20;8.87;;;;;;;;;;764233;182;818108;-66
2023/06/06 08:04:45;;;;;;;11.13;9.50;;;;;;;;;;763618;183;860882;-66
2023/06/06 08:07:09;;;;;;;11.68;7.53;;;;;;;;;;730378;186;1023306;-69
2023/06/06 08:09:35;;;;;;;12.10;8.63;;;;;;;;;;739614;187;919980;-66
2023/06/06 08:12:01;;;;;;;16.47;8.83;;;;;;;;;;749675;188;918597;-68
2023/06/06 08:14:29;;;;;;;12.37;8.83;;;;;;;;;;744721;188;816053;-69
2023/06/06 08:16:52;;;;;;;12.00;8.13;;;;;;;;;;741969;188;856892;-67
2023/06/06 08:19:18;;;;;;;12.40;8.33;;;;;;;;;;753809;186;915953;-68
2023/06/06 08:21:44;;;;;;;9.50;8.43;;;;;;;;;;734874;190;916577;-69
2023/06/06 08:24:10;;;;;;;10.53;8.23;;;;;;;;;;737638;190;918969;-67
2023/06/06 08:26:36;;;;;;;17.37;12.60;;;;;;;;;;738265;190;917465;-67
2023/06/06 08:29:02;;;;;;;15.37;10.93;;;;;;;;;;733454;190;919523;-71
2023/06/06 08:31:29;;;;;;;17.83;13.30;;;;;;;;;;733716;190;919416;-67
2023/06/06 08:33:54;;;;;;;14.43;7.73;;;;;;;;;;732478;190;918905;-67
2023/06/06 08:36:20;;;;;;;30.33;16.93;;;;;;;;;;742878;189;797487;-68
2023/06/06 08:38:46;;;;;;;15.50;11.33;;;;;;;;;;737306;189;921346;-66
2023/06/06 08:41:11;;;;;;;11.30;9.47;;;;;;;;;;732979;190;918896;-68
2023/06/06 08:43:38;;;;;;;14.38;10.18;;;;;;;;;;735596;190;917746;-67
2023/06/06 08:46:03;;;;;;;17.77;10.50;;;;;;;;;;736434;190;919009;-66
2023/06/06 08:48:29;;;;;;;13.13;9.80;;;;;;;;;;734788;190;918358;-66
2023/06/06 08:50:56;;;;;;;11.70;9.57;;;;;;;;;;735997;190;918696;-67
2023/06/06 08:53:22;;;;;;;17.37;10.63;;;;;;;;;;733582;189;921327;-66
2023/06/06 08:55:48;;;;;;;12.40;10.70;;;;;;;;;;739209;183;909998;-66
2023/06/06 08:58:13;;;;;;;26.07;10.73;;;;;;;;;;742116;184;849278;-66
2023/06/06 09:00:39;;;;;;;12.90;10.50;;;;;;;;;;736037;187;917686;-65
2023/06/06 09:03:06;;;;;;;20.57;10.20;;;;;;;;;;738374;187;940202;-68
2023/06/06 09:05:31;;;;;;;15.93;10.40;;;;;;;;;;741730;184;904108;-66
2023/06/06 09:07:57;;;;;;;12.30;10.00;;;;;;;;;;749133;184;845216;-65
2023/06/06 09:10:23;;;;;;;19.80;12.20;;;;;;;;;;741017;184;914627;-68
2023/06/06 09:12:49;;;;;;;20.43;15.80;;;;;;;;;;741609;187;918263;-67
2023/06/06 09:15:14;;;;;;;31.33;17.47;;;;;;;;;;745718;186;924701;-67
2023/06/06 09:17:40;;;;;;;26.40;13.30;;;;;;;;;;741387;187;917662;-66
2023/06/06 09:20:07;;;;;;;24.70;17.40;;;;;;;;;;744422;184;822167;-67
2023/06/06 09:22:38;;;;;;;23.43;12.83;;;;;;;;;;741232;186;916647;-67
2023/06/06 09:25:04;;;;;;;19.10;12.43;;;;;;;;;;739675;186;920474;-65
2023/06/06 09:27:30;;;;;;;20.17;12.23;;;;;;;;;;740263;185;919296;-67
2023/06/06 09:29:56;;;;;;;20.67;14.30;;;;;;;;;;740450;185;917900;-66
2023/06/06 09:32:26;;;;;;;15.07;10.80;;;;;;;;;;743846;186;918403;-68
2023/06/06 09:34:53;;;;;;;16.23;11.00;;;;;;;;;;739585;186;933242;-68
2023/06/06 09:37:17;;;;;;;12.77;10.00;;;;;;;;;;739767;186;919479;-67
2023/06/06 09:39:43;;;;;;;15.63;11.90;;;;;;;;;;738593;184;921054;-67
2023/06/06 09:42:09;;;;;;;13.27;9.80;;;;;;;;;;746288;184;918981;-68
2023/06/06 09:44:35;;;;;;;22.40;13.80;;;;;;;;;;743016;183;917856;-68
2023/06/06 09:47:01;;;;;;;17.20;13.97;;;;;;;;;;739864;184;846474;-65
2023/06/06 09:49:35;;;;;;;15.93;9.70;;;;;;;;;;745391;187;917704;-67
2023/06/06 09:52:00;;;;;;;17.30;10.00;;;;;;;;;;745651;185;909804;-67
2023/06/06 09:54:26;;;;;;;14.43;11.27;;;;;;;;;;742362;186;918967;-67
2023/06/06 09:56:52;;;;;;;13.93;10.40;;;;;;;;;;740200;185;917491;-65
2023/06/06 09:59:18;;;;;;;15.37;9.90;;;;;;;;;;744780;185;919573;-66
2023/06/06 10:01:44;;;;;;;15.50;11.80;;;;;;;;;;740044;185;919173;-65
2023/06/06 10:04:10;;;;;;;16.57;13.00;;;;;;;;;;744833;184;814929;-65
2023/06/06 10:06:38;;;;;;;11.57;9.23;;;;;;;;;;745370;186;918964;-65
2023/06/06 10:09:03;;;;;;;25.90;18.30;;;;;;;;;;742172;185;912524;-66
2023/06/06 10:11:28;;;;;;;38.37;24.33;;;;;;;;;;743199;186;817740;-64
2023/06/06 10:13:54;;;;;;;23.33;18.60;;;;;;;;;;745419;186;917226;-65
2023/06/06 10:16:20;;;;;;;29.10;19.70;;;;;;;;;;745205;184;844222;-65
2023/06/06 10:18:46;;;;;;;21.53;16.93;;;;;;;;;;743006;185;918893;-67
2023/06/06 10:21:11;;;;;;;12.17;10.60;;;;;;;;;;740955;184;918192;-67
2023/06/06 10:23:37;;;;;;;13.00;10.57;;;;;;;;;;749446;187;813624;-65
2023/06/06 10:26:03;;;;;;;14.20;10.57;;;;;;;;;;733873;189;918484;-66
2023/06/06 10:28:29;;;;;;;18.70;14.00;;;;;;;;;;736700;189;782185;-65
2023/06/06 10:30:55;;;;;;;23.23;12.07;;;;;;;;;;745170;190;624635;-65
2023/06/06 10:33:23;;;;;;;15.80;13.00;;;;;;;;;;735991;189;817206;-66
2023/06/06 10:35:49;;;;;;;12.70;10.47;;;;;;;;;;736950;189;917750;-68
2023/06/06 10:38:15;;;;;;;17.27;12.50;;;;;;;;;;739356;190;820599;-65
2023/06/06 10:40:41;;;;;;;14.70;11.17;;;;;;;;;;734794;189;852821;-66
2023/06/06 10:43:07;;;;;;;26.03;17.80;;;;;;;;;;735609;189;918778;-65
2023/06/06 10:45:39;;;;;;;19.80;14.10;;;;;;;;;;744570;186;916702;-66
2023/06/06 10:48:05;;;;;;;13.03;11.10;;;;;;;;;;738095;185;919324;-66
2023/06/06 10:50:30;;;;;;;17.23;11.17;;;;;;;;;;742603;186;881046;-65
2023/06/06 10:52:58;;;;;;;13.93;10.80;;;;;;;;;;741105;186;918885;-65
2023/06/06 10:55:39;;;;;;;14.77;11.07;;;;;;;;;;745235;187;918393;-66
2023/06/06 10:58:13;;;;;;;19.30;11.37;;;;;;;;;;737415;190;918948;-67
2023/06/06 11:00:36;;;;;;;13.27;10.60;;;;;;;;;;737211;190;918829;-66
2023/06/06 11:03:04;;;;;;;14.90;11.30;;;;;;;;;;737811;187;920066;-67
2023/06/06 11:05:30;;;;;;;14.33;9.77;;;;;;;;;;745169;184;918686;-66
2023/06/06 11:07:58;;;;;;;17.30;11.80;;;;;;;;;;746863;185;919521;-68
2023/06/06 11:10:24;;;;;;;13.23;11.70;;;;;;;;;;736559;184;918942;-69
2023/06/06 11:12:50;;;;;;;16.07;10.50;;;;;;;;;;733585;187;920387;-69
2023/06/06 11:15:15;;;;;;;13.10;10.97;;;;;;;;;;741682;187;917218;-67
2023/06/06 11:17:43;;;;;;;15.50;10.87;;;;;;;;;;743752;184;918435;-68
2023/06/06 11:20:10;;;;;;;14.17;11.40;;;;;;;;;;740875;186;915370;-68
2023/06/06 11:22:35;;;;;;;17.63;12.20;;;;;;;;;;746526;186;818000;-69
2023/06/06 11:25:01;;;;;;;13.80;11.80;;;;;;;;;;738936;187;821050;-65
2023/06/06 11:27:27;;;;;;;12.60;10.67;;;;;;;;;;740785;186;919000;-69
2023/06/06 11:29:53;;;;;;;21.90;12.03;;;;;;;;;;741654;186;875283;-69
2023/06/06 11:32:18;;;;;;;17.37;13.40;;;;;;;;;;745791;184;916423;-65
2023/06/06 11:34:44;;;;;;;15.37;11.93;;;;;;;;;;743576;187;919417;-65
2023/06/06 11:37:10;;;;;;;19.67;14.23;;;;;;;;;;741073;182;917347;-66
2023/06/06 11:39:36;;;;;;;17.70;12.60;;;;;;;;;;744892;184;919237;-67
2023/06/06 11:42:02;;;;;;;16.40;13.43;;;;;;;;;;745649;187;918656;-66
2023/06/06 11:44:30;;;;;;;16.23;13.00;;;;;;;;;;740021;186;920693;-68
2023/06/06 11:46:55;;;;;;;12.83;11.43;;;;;;;;;;740138;184;919446;-70
2023/06/06 11:49:21;;;;;;;14.37;11.80;;;;;;;;;;747911;186;916997;-70
2023/06/06 11:51:53;;;;;;;21.17;12.47;;;;;;;;;;741424;184;919073;-70
2023/06/06 11:54:20;;;;;;;16.23;11.77;;;;;;;;;;738692;186;919877;-66
2023/06/06 11:56:45;;;;;;;14.30;11.87;;;;;;;;;;741509;185;920046;-68
2023/06/06 11:59:11;;;;;;;15.23;11.60;;;;;;;;;;744768;186;819186;-67
2023/06/06 12:01:37;;;;;;;13.60;10.33;;;;;;;;;;743842;186;814866;-66
2023/06/06 12:04:03;;;;;;;18.63;11.97;;;;;;;;;;741625;186;920225;-71
2023/06/06 12:06:29;;;;;;;19.77;11.80;;;;;;;;;;744288;184;920783;-72
2023/06/06 12:08:55;;;;;;;13.80;10.87;;;;;;;;;;745096;187;919745;-68
2023/06/06 12:11:22;;;;;;;14.90;12.07;;;;;;;;;;733214;190;920160;-66
2023/06/06 12:13:47;;;;;;;12.20;10.63;;;;;;;;;;736991;189;912014;-68
2023/06/06 12:16:21;;;;;;;13.00;9.50;;;;;;;;;;738295;190;818336;-68
2023/06/06 12:18:47;;;;;;;16.23;11.83;;;;;;;;;;737446;190;919243;-66
2023/06/06 12:21:15;;;;;;;12.20;10.43;;;;;;;;;;732253;190;918151;-67
2023/06/06 12:23:40;;;;;;;14.50;10.13;;;;;;;;;;736278;190;941893;-70
2023/06/06 12:26:05;;;;;;;15.33;11.60;;;;;;;;;;741557;187;917744;-66
2023/06/06 12:28:31;;;;;;;14.80;10.37;;;;;;;;;;739151;185;919670;-66
2023/06/06 12:30:57;;;;;;;14.60;10.63;;;;;;;;;;741815;188;914693;-65
2023/06/06 12:33:22;;;;;;;12.87;9.67;;;;;;;;;;742829;187;816625;-71
2023/06/06 12:35:48;;;;;;;17.07;11.40;;;;;;;;;;741999;184;919039;-66
2023/06/06 12:38:19;;;;;;;13.47;12.07;;;;;;;;;;741989;187;918577;-67
2023/06/06 12:40:44;;;;;;;13.70;10.50;;;;;;;;;;745547;184;919070;-70
2023/06/06 12:43:10;;;;;;;17.63;11.10;;;;;;;;;;745000;184;919201;-64
2023/06/06 12:45:36;;;;;;;15.88;11.93;;;;;;;;;;739373;189;923192;-66
2023/06/06 12:48:02;;;;;;;13.80;10.67;;;;;;;;;;743422;189;739625;-65
2023/06/06 12:50:28;;;;;;;13.10;10.67;;;;;;;;;;735688;189;920842;-65
2023/06/06 12:52:53;;;;;;;13.30;9.73;;;;;;;;;;744602;183;820668;-71
2023/06/06 12:55:19;;;;;;;17.43;11.60;;;;;;;;;;741028;186;817307;-69
2023/06/06 12:57:45;;;;;;;15.40;10.50;;;;;;;;;;744609;184;919577;-65
2023/06/06 13:00:13;;;;;;;12.67;10.00;;;;;;;;;;743048;184;918697;-71
2023/06/06 13:02:37;;;;;;;10.67;8.97;;;;;;;;;;739106;184;917993;-70
2023/06/06 13:05:04;;;;;;;11.40;9.80;;;;;;;;;;744347;187;918476;-71
2023/06/06 13:07:29;;;;;;;14.10;9.87;;;;;;;;;;740659;184;918882;-70
2023/06/06 13:09:55;;;;;;;12.70;8.80;;;;;;;;;;740457;184;917952;-70
2023/06/06 13:12:22;;;;;;;10.33;7.83;;;;;;;;;;746449;186;920964;-69
2023/06/06 13:14:47;;;;;;;11.97;7.90;;;;;;;;;;740019;183;1021533;-65
2023/06/06 13:17:13;;;;;;;12.20;8.80;;;;;;;;;;743027;185;918175;-65
2023/06/06 13:19:39;;;;;;;8.63;7.20;;;;;;;;;;739476;187;918795;-69
2023/06/06 13:22:05;;;;;;;10.63;8.47;;;;;;;;;;738894;186;915870;-73
2023/06/06 13:24:30;;;;;;;11.43;8.10;;;;;;;;;;739761;187;918022;-71
2023/06/06 13:26:56;;;;;;;8.93;6.78;;;;;;;;;;742424;185;821225;-67
2023/06/06 13:29:22;;;;;;;8.60;6.67;;;;;;;;;;747383;187;919065;-70
2023/06/06 13:31:48;;;;;;;10.20;8.37;;;;;;;;;;738661;187;919173;-73
2023/06/06 13:34:14;;;;;;;9.57;7.57;;;;;;;;;;738572;186;913757;-72
2023/06/06 13:36:40;;;;;;;9.03;6.60;;;;;;;;;;749177;187;917770;-77
2023/06/06 13:39:06;;;;;;;14.80;8.57;;;;;;;;;;745079;184;918956;-66
2023/06/06 13:41:32;;;;;;;10.60;7.03;;;;;;;;;;741296;185;920977;-76
2023/06/06 13:44:00;;;;;;;6.72;5.78;;;;;;;;;;745763;187;916521;-71
2023/06/06 13:46:25;;;;;;;11.53;6.80;;;;;;;;;;742395;184;919565;-67
2023/06/06 13:48:53;;;;;;;7.77;6.80;;;;;;;;;;741144;184;918776;-66
2023/06/06 13:51:17;;;;;;;12.07;7.80;;;;;;;;;;742736;184;917294;-74
2023/06/06 13:53:44;;;;;;;7.93;6.60;;;;;;;;;;747856;185;892076;-75
2023/06/06 13:56:09;;;;;;;11.83;7.47;;;;;;;;;;744451;185;919752;-67
2023/06/06 13:58:40;;;;;;;9.30;7.47;;;;;;;;;;742500;186;918072;-75
2023/06/06 14:01:00;;;;;;;11.60;7.60;;;;;;;;;;750070;186;919377;-68